MSC Maeva — H9TF — position and weather

sailwx.info

Track history (hours):
 
Tides and Currents Weather Stations Pressure Air Temp Water Temp Dewpoint Dewpoint Depression Visibility Wind Speed Wind Dir Waves Ship Positions

MSC Maeva

Last reported at 2015-Mar-04 03:33 UTC. Time now 2015-Mar-04 16:52 UTC.
Position N 24°13' E 118°21'.

Type: Ship (hazmat cat A). MMSI: 371851000.

Date/timePositionNaut miles runAvg speedWind from/ knotsBaromVisibWave heightAir tempDewpointWater temp
2015-Mar-04 03:33N 24°13' E 118°21'1413.6
2015-Mar-04 02:33N 24°21' E 118°09'8 5.7
2015-Mar-04 01:04N 24°26' E 118°02'0 0.0
2015-Mar-04 00:29N 24°26' E 118°02'0 0.0
2015-Mar-03 23:28N 24°26' E 118°02'0 0.0
2015-Mar-03 22:22N 24°26' E 118°02'0 0.0
2015-Mar-03 21:16N 24°26' E 118°02'0 0.0
2015-Mar-03 20:16N 24°27' E 118°02'0 0.0
2015-Mar-03 19:28N 24°26' E 118°02'0 0.0
2015-Mar-03 18:28N 24°27' E 118°02'0 0.0
2015-Mar-03 16:16N 24°26' E 118°02'0 0.0
2015-Mar-03 15:10N 24°27' E 118°02'0 0.0
2015-Mar-03 12:28N 24°27' E 118°02'0 0.0
2015-Mar-03 11:10N 24°26' E 118°02'0 0.0
2015-Mar-03 10:16N 24°26' E 118°02'3 4.7
2015-Mar-03 09:33N 24°25' E 118°05'1211.5
2015-Mar-03 08:33N 24°17' E 118°14'1414.2
2015-Mar-03 07:33N 24°04' E 118°22'25615.8
2015-Mar-02 15:21N 22°08' E 114°15'12 9.5
2015-Mar-02 14:07N 22°16' E 114°06'3 6.0
2015-Mar-02 13:32N 22°20' E 114°07'1 0.5
2015-Mar-02 12:30N 22°20' E 114°07'0 0.1
2015-Mar-02 11:33N 22°20' E 114°07'0 0.1
2015-Mar-02 10:33N 22°20' E 114°07'0 0.0
2015-Mar-02 09:24N 22°20' E 114°07'0 0.0
2015-Mar-02 08:15N 22°20' E 114°07'0 0.1
2015-Mar-02 07:33N 22°20' E 114°07'0 0.0
2015-Mar-02 06:24N 22°20' E 114°07'0 0.0
2015-Mar-02 05:18N 22°20' E 114°07'0 0.0
2015-Mar-02 04:18N 22°20' E 114°07'0 0.1
2015-Mar-02 03:12N 22°20' E 114°07'0 0.1
2015-Mar-02 02:15N 22°20' E 114°07'0 0.1
2015-Mar-02 01:12N 22°20' E 114°07'0 0.1
2015-Mar-02 00:33N 22°20' E 114°07'0 0.1
2015-Mar-01 23:33N 22°20' E 114°07'1 1.4
2015-Mar-01 22:33N 22°19' E 114°06'7 6.6
2015-Mar-01 21:31N 22°13' E 114°10'8 7.8
2015-Mar-01 20:27N 22°09' E 114°17'1314.1
2015-Mar-01 19:33N 22°09' E 114°31'28714.7
2015-Mar-01 00:05N 22°26' E 119°40'1017.9
2015-Feb-28 23:33N 22°28' E 119°50'1918.6
2015-Feb-28 22:33N 22°32' E 120°10'9 8.9
2015-Feb-28 21:33N 22°33' E 120°20'0 0.1
2015-Feb-28 20:25N 22°33' E 120°20'0 0.0
2015-Feb-28 19:31N 22°33' E 120°20'0 0.0
2015-Feb-28 18:25N 22°33' E 120°20'0 0.0
2015-Feb-28 17:31N 22°33' E 120°20'0 0.0
2015-Feb-28 16:25N 22°33' E 120°20'0 0.0
2015-Feb-28 15:13N 22°33' E 120°20'0 0.0
2015-Feb-28 14:31N 22°33' E 120°20'0 0.0
2015-Feb-28 13:25N 22°33' E 120°20'0 0.0
2015-Feb-28 12:31N 22°33' E 120°20'0 0.0
2015-Feb-28 11:31N 22°33' E 120°20'0 0.0
2015-Feb-28 10:31N 22°33' E 120°20'0 0.0
2015-Feb-28 09:31N 22°33' E 120°20'0 0.1
2015-Feb-28 08:31N 22°33' E 120°20'5 5.2
2015-Feb-28 07:33N 22°32' E 120°14'3 2.9
2015-Feb-28 06:33N 22°31' E 120°12'6 5.9
2015-Feb-28 05:33N 22°25' E 120°13'8 7.6
2015-Feb-28 04:33N 22°17' E 120°14'8 8.2
2015-Feb-28 03:33N 22°11' E 120°19'  
Track history (hours):
 
Tides and Currents Weather Stations Pressure Air Temp Water Temp Dewpoint Dewpoint Depression Visibility Wind Speed Wind Dir Waves Ship Positions

MSC Maeva

Last reported at 2015-Mar-04 03:33 UTC. Time now 2015-Mar-04 16:52 UTC.
Position N 24°13' E 118°21'.

Type: Ship (hazmat cat A). MMSI: 371851000.

Date/timePositionNaut miles runAvg speedWind from/ knotsBaromVisibWave heightAir tempDewpointWater temp
2015-Mar-04 03:33N 24°13' E 118°21'1413.6
2015-Mar-04 02:33N 24°21' E 118°09'8 5.7
2015-Mar-04 01:04N 24°26' E 118°02'0 0.0
2015-Mar-04 00:29N 24°26' E 118°02'0 0.0
2015-Mar-03 23:28N 24°26' E 118°02'0 0.0
2015-Mar-03 22:22N 24°26' E 118°02'0 0.0
2015-Mar-03 21:16N 24°26' E 118°02'0 0.0
2015-Mar-03 20:16N 24°27' E 118°02'0 0.0
2015-Mar-03 19:28N 24°26' E 118°02'0 0.0
2015-Mar-03 18:28N 24°27' E 118°02'0 0.0
2015-Mar-03 16:16N 24°26' E 118°02'0 0.0
2015-Mar-03 15:10N 24°27' E 118°02'0 0.0
2015-Mar-03 12:28N 24°27' E 118°02'0 0.0
2015-Mar-03 11:10N 24°26' E 118°02'0 0.0
2015-Mar-03 10:16N 24°26' E 118°02'3 4.7
2015-Mar-03 09:33N 24°25' E 118°05'1211.5
2015-Mar-03 08:33N 24°17' E 118°14'1414.2
2015-Mar-03 07:33N 24°04' E 118°22'25615.8
2015-Mar-02 15:21N 22°08' E 114°15'12 9.5
2015-Mar-02 14:07N 22°16' E 114°06'3 6.0
2015-Mar-02 13:32N 22°20' E 114°07'1 0.5
2015-Mar-02 12:30N 22°20' E 114°07'0 0.1
2015-Mar-02 11:33N 22°20' E 114°07'0 0.1
2015-Mar-02 10:33N 22°20' E 114°07'0 0.0
2015-Mar-02 09:24N 22°20' E 114°07'0 0.0
2015-Mar-02 08:15N 22°20' E 114°07'0 0.1
2015-Mar-02 07:33N 22°20' E 114°07'0 0.0
2015-Mar-02 06:24N 22°20' E 114°07'0 0.0
2015-Mar-02 05:18N 22°20' E 114°07'0 0.0
2015-Mar-02 04:18N 22°20' E 114°07'0 0.1
2015-Mar-02 03:12N 22°20' E 114°07'0 0.1
2015-Mar-02 02:15N 22°20' E 114°07'0 0.1
2015-Mar-02 01:12N 22°20' E 114°07'0 0.1
2015-Mar-02 00:33N 22°20' E 114°07'0 0.1
2015-Mar-01 23:33N 22°20' E 114°07'1 1.4
2015-Mar-01 22:33N 22°19' E 114°06'7 6.6
2015-Mar-01 21:31N 22°13' E 114°10'8 7.8
2015-Mar-01 20:27N 22°09' E 114°17'1314.1
2015-Mar-01 19:33N 22°09' E 114°31'28714.7
2015-Mar-01 00:05N 22°26' E 119°40'1017.9
2015-Feb-28 23:33N 22°28' E 119°50'1918.6
2015-Feb-28 22:33N 22°32' E 120°10'9 8.9
2015-Feb-28 21:33N 22°33' E 120°20'0 0.1
2015-Feb-28 20:25N 22°33' E 120°20'0 0.0
2015-Feb-28 19:31N 22°33' E 120°20'0 0.0
2015-Feb-28 18:25N 22°33' E 120°20'0 0.0
2015-Feb-28 17:31N 22°33' E 120°20'0 0.0
2015-Feb-28 16:25N 22°33' E 120°20'0 0.0
2015-Feb-28 15:13N 22°33' E 120°20'0 0.0
2015-Feb-28 14:31N 22°33' E 120°20'0 0.0
2015-Feb-28 13:25N 22°33' E 120°20'0 0.0
2015-Feb-28 12:31N 22°33' E 120°20'0 0.0
2015-Feb-28 11:31N 22°33' E 120°20'0 0.0
2015-Feb-28 10:31N 22°33' E 120°20'0 0.0
2015-Feb-28 09:31N 22°33' E 120°20'0 0.1
2015-Feb-28 08:31N 22°33' E 120°20'5 5.2
2015-Feb-28 07:33N 22°32' E 120°14'3 2.9
2015-Feb-28 06:33N 22°31' E 120°12'6 5.9
2015-Feb-28 05:33N 22°25' E 120°13'8 7.6
2015-Feb-28 04:33N 22°17' E 120°14'8 8.2
2015-Feb-28 03:33N 22°11' E 120°19'  

Dump ship's entire track history